createdAt,value
2018-09-14T00:01:21.527Z,82.50
2018-09-14T00:03:49.721Z,82.50
2018-09-14T00:06:17.899Z,83.80
2018-09-14T00:08:46.022Z,83.90
2018-09-14T00:11:14.345Z,84.10
2018-09-14T00:13:43.345Z,84.10
2018-09-14T00:16:12.608Z,83.70
2018-09-14T00:18:41.665Z,84.50
2018-09-14T00:21:10.791Z,84.40
2018-09-14T00:23:39.748Z,84.70
2018-09-14T00:26:08.848Z,86.50
2018-09-14T00:28:37.976Z,86.80
2018-09-14T00:31:07.036Z,86.80
2018-09-14T00:33:36.056Z,86.20
2018-09-14T00:36:05.017Z,86.00
2018-09-14T00:38:34.095Z,85.80
2018-09-14T00:41:03.365Z,86.30
2018-09-14T00:43:32.520Z,86.00
2018-09-14T00:46:01.612Z,85.90
2018-09-14T00:48:30.708Z,85.50
2018-09-14T00:50:59.720Z,86.00
2018-09-14T00:53:28.930Z,85.90
2018-09-14T00:55:57.899Z,86.40
2018-09-14T00:58:26.888Z,86.30
2018-09-14T01:00:55.968Z,86.40
2018-09-14T01:03:24.956Z,87.70
2018-09-14T01:05:53.900Z,87.60
2018-09-14T01:08:23.149Z,87.70
2018-09-14T01:10:52.267Z,88.90
2018-09-14T01:13:21.339Z,89.30
2018-09-14T01:15:50.455Z,89.20
2018-09-14T01:18:19.468Z,89.40
2018-09-14T01:20:48.436Z,89.30
2018-09-14T01:23:17.417Z,88.30
2018-09-14T01:25:46.420Z,89.90
2018-09-14T01:28:15.402Z,90.30
2018-09-14T01:30:44.518Z,90.10
2018-09-14T01:33:13.588Z,89.70
2018-09-14T01:35:47.916Z,90.60
2018-09-14T01:38:17.010Z,90.90
2018-09-14T01:40:46.158Z,91.60
2018-09-14T01:43:15.187Z,91.10
2018-09-14T01:45:44.184Z,90.70
2018-09-14T01:48:13.296Z,90.20
2018-09-14T01:50:42.343Z,90.50
2018-09-14T01:53:11.373Z,90.80
2018-09-14T01:55:40.340Z,90.80
2018-09-14T01:58:09.470Z,91.10
2018-09-14T02:00:38.563Z,91.40
2018-09-14T02:03:07.646Z,91.20
2018-09-14T02:05:36.626Z,91.10
2018-09-14T02:08:05.707Z,91.20
2018-09-14T02:10:34.647Z,91.10
2018-09-14T02:13:03.724Z,90.90
2018-09-14T02:15:32.811Z,91.30
2018-09-14T02:18:01.900Z,91.20
2018-09-14T02:20:31.016Z,91.50
2018-09-14T02:22:59.993Z,91.40
2018-09-14T02:25:29.171Z,91.50
2018-09-14T02:27:58.190Z,91.70
2018-09-14T02:30:27.194Z,91.80
2018-09-14T02:32:56.268Z,91.80
2018-09-14T02:35:25.379Z,92.00
2018-09-14T02:37:54.485Z,92.10
2018-09-14T02:40:23.448Z,91.90
2018-09-14T02:42:52.540Z,92.10
2018-09-14T02:45:21.667Z,91.80
2018-09-14T02:47:50.710Z,91.60
2018-09-14T02:50:19.857Z,91.80
2018-09-14T02:52:48.926Z,91.60
2018-09-14T02:55:18.300Z,91.70
2018-09-14T02:57:47.423Z,92.10
2018-09-14T03:00:16.582Z,92.40
2018-09-14T03:02:45.704Z,92.90
2018-09-14T03:05:14.811Z,93.30
2018-09-14T03:07:43.957Z,93.40
2018-09-14T03:10:13.031Z,94.00
2018-09-14T03:12:42.023Z,94.20
2018-09-14T03:15:11.116Z,94.00
2018-09-14T03:17:40.283Z,94.80
2018-09-14T03:20:09.491Z,94.90
2018-09-14T03:22:38.573Z,94.90
2018-09-14T03:25:07.678Z,94.70
2018-09-14T03:27:36.676Z,94.20
2018-09-14T03:30:05.853Z,93.80
2018-09-14T03:32:34.960Z,94.10
2018-09-14T03:35:03.951Z,94.20
2018-09-14T03:37:32.913Z,93.80
2018-09-14T03:40:01.944Z,95.20
2018-09-14T03:42:30.995Z,94.70
2018-09-14T03:45:00.138Z,95.10
2018-09-14T03:47:29.196Z,95.30
2018-09-14T03:49:58.195Z,95.00
2018-09-14T03:52:27.319Z,95.20
2018-09-14T03:54:56.276Z,95.50
2018-09-14T03:57:25.399Z,95.30
2018-09-14T03:59:54.469Z,95.80
2018-09-14T04:02:23.576Z,96.00
2018-09-14T04:04:52.687Z,95.20
2018-09-14T04:07:21.752Z,95.20
2018-09-14T04:09:50.847Z,95.10
2018-09-14T04:12:19.824Z,94.80
2018-09-14T04:14:48.909Z,94.90
2018-09-14T04:17:18.047Z,95.10
2018-09-14T04:19:47.019Z,95.10
2018-09-14T04:22:16.005Z,94.40
2018-09-14T04:24:45.241Z,95.50
2018-09-14T04:27:14.302Z,95.50
2018-09-14T04:29:43.413Z,95.70
2018-09-14T04:32:12.618Z,96.10
2018-09-14T04:34:41.688Z,96.30
2018-09-14T04:37:10.714Z,95.80
2018-09-14T04:39:39.668Z,95.00
2018-09-14T04:42:08.680Z,95.00
2018-09-14T04:44:37.598Z,95.70
2018-09-14T04:47:06.671Z,95.30
2018-09-14T04:49:35.877Z,95.70
2018-09-14T04:52:04.977Z,96.10
2018-09-14T04:54:34.059Z,96.50
2018-09-14T04:57:03.268Z,96.60
2018-09-14T04:59:32.368Z,96.20
2018-09-14T05:02:01.312Z,96.20
2018-09-14T05:04:30.366Z,96.00
2018-09-14T05:06:59.354Z,95.50
2018-09-14T05:09:28.388Z,95.50
2018-09-14T05:11:57.488Z,96.00
2018-09-14T05:14:26.596Z,96.00
2018-09-14T05:16:55.808Z,96.50
2018-09-14T05:19:24.776Z,96.10
2018-09-14T05:21:53.868Z,96.80
2018-09-14T05:24:22.978Z,97.20
2018-09-14T05:26:51.976Z,96.30
2018-09-14T05:29:20.991Z,97.20
2018-09-14T05:31:50.135Z,97.20
2018-09-14T05:34:19.247Z,96.10
2018-09-14T05:36:48.353Z,96.60
2018-09-14T05:39:17.386Z,97.10
2018-09-14T05:41:46.407Z,97.60
2018-09-14T05:44:15.444Z,97.50
2018-09-14T05:46:44.405Z,96.50
2018-09-14T05:49:13.427Z,97.20
2018-09-14T05:51:42.496Z,96.90
2018-09-14T05:54:11.604Z,96.70
2018-09-14T05:56:40.712Z,97.20
2018-09-14T05:59:09.810Z,97.50
2018-09-14T06:01:39.104Z,98.00
2018-09-14T06:04:08.088Z,98.30
2018-09-14T06:06:37.179Z,98.60
2018-09-14T06:09:09.933Z,98.10
2018-09-14T06:11:39.085Z,98.70
2018-09-14T06:14:08.249Z,98.60
2018-09-14T06:16:37.757Z,99.20
2018-09-14T06:19:06.964Z,99.90
2018-09-14T06:21:36.057Z,99.90
2018-09-14T06:24:05.065Z,99.90
2018-09-14T06:26:34.135Z,99.90
2018-09-14T06:29:03.779Z,99.90
2018-09-14T06:31:32.732Z,99.90
2018-09-14T06:34:01.951Z,99.90
2018-09-14T06:36:31.068Z,99.90
2018-09-14T06:39:00.120Z,99.90
2018-09-14T06:41:29.222Z,99.90
2018-09-14T06:43:58.336Z,99.90
2018-09-14T06:46:27.420Z,99.90
2018-09-14T06:48:56.629Z,99.90
2018-09-14T06:51:25.606Z,99.90
2018-09-14T06:53:54.697Z,99.90
2018-09-14T06:56:23.820Z,99.90
2018-09-14T06:58:52.904Z,99.90
2018-09-14T07:01:22.005Z,99.90
2018-09-14T07:03:51.007Z,99.90
2018-09-14T07:07:38.811Z,99.90
2018-09-14T07:10:07.924Z,99.90
2018-09-14T07:12:37.175Z,99.90
2018-09-14T07:15:06.370Z,99.90
2018-09-14T07:17:35.421Z,99.90
2018-09-14T07:20:04.629Z,99.90
2018-09-14T07:22:33.600Z,99.50
2018-09-14T07:25:02.748Z,99.80
2018-09-14T07:27:31.801Z,98.80
2018-09-14T07:30:01.704Z,98.80
2018-09-14T07:32:31.311Z,98.70
2018-09-14T07:35:00.411Z,98.50
2018-09-14T07:37:29.496Z,98.10
2018-09-14T07:39:58.568Z,98.00
2018-09-14T07:42:27.946Z,98.40
2018-09-14T07:44:56.965Z,98.00
2018-09-14T07:47:26.194Z,98.00
2018-09-14T07:49:55.287Z,97.60
2018-09-14T07:52:24.272Z,98.00
2018-09-14T07:54:53.489Z,98.60
2018-09-14T07:57:22.661Z,98.60
2018-09-14T07:59:51.756Z,98.50
2018-09-14T08:02:20.878Z,98.90
2018-09-14T08:04:50.040Z,98.00
2018-09-14T08:07:19.262Z,97.90
2018-09-14T08:09:48.320Z,97.50
2018-09-14T08:12:17.325Z,97.90
2018-09-14T08:14:46.455Z,97.90
2018-09-14T08:17:15.492Z,97.60
2018-09-14T08:19:44.878Z,97.70
2018-09-14T08:22:13.949Z,97.50
2018-09-14T08:24:42.919Z,97.50
2018-09-14T08:27:12.108Z,97.50
2018-09-14T08:29:41.216Z,98.30
2018-09-14T08:32:10.291Z,97.10
2018-09-14T08:34:39.593Z,96.30
2018-09-14T08:37:08.726Z,96.50
2018-09-14T08:39:37.633Z,96.50
2018-09-14T08:42:06.966Z,95.60
2018-09-14T08:44:36.261Z,95.10
2018-09-14T08:47:05.556Z,94.20
2018-09-14T08:49:34.780Z,93.90
2018-09-14T08:52:04.645Z,94.40
2018-09-14T08:54:33.744Z,94.30
2018-09-14T08:57:02.756Z,94.30
2018-09-14T08:59:31.765Z,94.70
2018-09-14T09:02:00.757Z,93.80
2018-09-14T09:04:29.798Z,93.30
2018-09-14T09:06:58.823Z,94.20
2018-09-14T09:09:27.903Z,94.50
2018-09-14T09:11:57.031Z,94.70
2018-09-14T09:14:26.112Z,94.10
2018-09-14T09:16:55.258Z,94.30
2018-09-14T09:19:24.441Z,94.30
2018-09-14T09:21:53.513Z,94.80
2018-09-14T09:24:22.614Z,94.40
2018-09-14T09:26:51.512Z,95.10
2018-09-14T09:29:20.419Z,94.90
2018-09-14T09:31:49.509Z,94.70
2018-09-14T09:34:18.580Z,94.80
2018-09-14T09:36:47.325Z,94.30
2018-09-14T09:39:16.328Z,94.30
2018-09-14T09:41:45.373Z,94.70
2018-09-14T09:44:14.461Z,94.70
2018-09-14T09:46:43.542Z,93.70
2018-09-14T09:49:12.640Z,92.80
2018-09-14T09:51:41.729Z,92.60
2018-09-14T09:54:10.836Z,92.80
2018-09-14T09:56:40.164Z,92.50
2018-09-14T09:59:09.208Z,92.30
2018-09-14T10:01:47.390Z,92.50
2018-09-14T10:04:25.594Z,91.50
2018-09-14T10:06:55.197Z,90.40
2018-09-14T10:09:24.264Z,89.90
2018-09-14T10:11:53.450Z,90.10
2018-09-14T10:14:22.525Z,88.00
2018-09-14T10:16:51.509Z,86.70
2018-09-14T10:19:20.731Z,86.70
2018-09-14T10:21:49.999Z,84.20
2018-09-14T10:24:19.138Z,85.40
2018-09-14T10:26:48.132Z,85.40
2018-09-14T10:29:17.087Z,85.50
2018-09-14T10:31:46.189Z,87.00
2018-09-14T10:34:15.310Z,87.50
2018-09-14T10:36:44.552Z,87.10
2018-09-14T10:39:13.788Z,85.20
2018-09-14T10:41:42.979Z,82.90
2018-09-14T10:44:12.171Z,83.30
2018-09-14T10:46:41.387Z,83.40
2018-09-14T10:49:10.521Z,82.80
2018-09-14T10:51:39.562Z,82.30
2018-09-14T10:54:08.562Z,83.40
2018-09-14T10:56:37.627Z,81.30
2018-09-14T10:59:06.835Z,80.60
2018-09-14T11:01:35.809Z,81.20
2018-09-14T11:04:05.016Z,80.80
2018-09-14T11:06:33.306Z,82.50
2018-09-14T11:09:02.343Z,81.60
2018-09-14T11:11:31.396Z,79.40
2018-09-14T11:14:00.422Z,78.90
2018-09-14T11:16:29.527Z,79.20
2018-09-14T11:18:58.759Z,79.40
2018-09-14T11:21:27.777Z,79.20
2018-09-14T11:23:56.880Z,79.20
2018-09-14T11:26:25.971Z,78.60
2018-09-14T11:28:55.064Z,78.70
2018-09-14T11:31:27.496Z,77.20
2018-09-14T11:33:56.348Z,77.30
2018-09-14T11:36:24.927Z,78.20
2018-09-14T11:38:53.190Z,78.80
2018-09-14T11:41:21.486Z,78.90
2018-09-14T11:43:49.796Z,77.40
2018-09-14T11:46:19.486Z,77.10
2018-09-14T11:48:49.008Z,78.50
2018-09-14T11:51:17.248Z,76.70
2018-09-14T11:53:46.231Z,76.90
2018-09-14T11:56:14.359Z,77.50
2018-09-14T11:58:42.739Z,77.50
2018-09-14T12:01:11.012Z,76.70
2018-09-14T12:03:39.353Z,75.70
2018-09-14T12:06:07.492Z,75.10
2018-09-14T12:08:35.628Z,75.10
2018-09-14T12:11:03.896Z,74.90
2018-09-14T12:13:32.043Z,75.10
2018-09-14T12:16:00.145Z,72.90
2018-09-14T12:18:28.313Z,73.50
2018-09-14T12:20:56.446Z,70.40
2018-09-14T12:23:24.563Z,72.20
2018-09-14T12:25:52.799Z,69.40
2018-09-14T12:28:21.039Z,68.70
2018-09-14T12:30:49.336Z,68.40
2018-09-14T12:33:17.660Z,67.30
2018-09-14T12:35:45.712Z,66.90
2018-09-14T12:38:13.786Z,64.10
2018-09-14T12:40:41.869Z,64.20
2018-09-14T12:43:09.932Z,64.80
2018-09-14T12:45:38.115Z,65.90
2018-09-14T12:48:06.160Z,63.80
2018-09-14T12:50:34.258Z,62.40
2018-09-14T12:53:02.400Z,60.00
2018-09-14T12:55:30.492Z,60.30
2018-09-14T12:57:58.677Z,59.70
2018-09-14T13:00:26.856Z,58.50
2018-09-14T13:02:55.975Z,59.00
2018-09-14T13:05:25.219Z,59.40
2018-09-14T13:07:54.363Z,57.10
2018-09-14T13:10:23.604Z,57.30
2018-09-14T13:12:52.777Z,57.70
2018-09-14T13:15:21.965Z,56.80
2018-09-14T13:17:51.045Z,57.30
2018-09-14T13:20:20.177Z,57.40
2018-09-14T13:22:49.276Z,57.70
2018-09-14T13:25:18.424Z,57.20
2018-09-14T13:27:47.469Z,58.00
2018-09-14T13:30:16.549Z,57.40
2018-09-14T13:32:51.122Z,57.80
2018-09-14T13:35:22.090Z,58.10
2018-09-14T13:37:51.507Z,57.80
2018-09-14T13:40:20.889Z,57.80
2018-09-14T13:42:50.404Z,58.00
2018-09-14T13:45:19.620Z,57.90
2018-09-14T13:47:48.636Z,58.20
2018-09-14T13:50:17.732Z,57.90
2018-09-14T13:52:46.822Z,57.80
2018-09-14T13:55:20.490Z,57.40
2018-09-14T13:57:49.583Z,57.30
2018-09-14T14:00:18.707Z,57.00
2018-09-14T14:02:47.728Z,57.10
2018-09-14T14:05:16.768Z,56.40
2018-09-14T14:07:45.843Z,57.30
2018-09-14T14:10:14.938Z,57.30
2018-09-14T14:12:43.936Z,56.80
2018-09-14T14:15:12.934Z,56.70
2018-09-14T14:17:42.173Z,57.10
2018-09-14T14:20:11.151Z,57.30
2018-09-14T14:22:40.207Z,57.10
2018-09-14T14:25:09.216Z,56.30
2018-09-14T14:27:38.193Z,56.90
2018-09-14T14:30:07.499Z,58.60
2018-09-14T14:32:35.663Z,60.90
2018-09-14T14:35:04.570Z,62.00
2018-09-14T14:37:33.681Z,63.10
2018-09-14T14:40:01.726Z,64.10
2018-09-14T14:42:29.843Z,64.20
2018-09-14T14:44:57.897Z,65.60
2018-09-14T14:47:26.055Z,66.90
2018-09-14T14:49:54.179Z,67.00
2018-09-14T14:52:22.208Z,66.60
2018-09-14T14:54:50.303Z,68.20
2018-09-14T14:57:18.440Z,69.00
2018-09-14T14:59:46.543Z,68.20
2018-09-14T15:02:14.732Z,68.20
2018-09-14T15:04:42.775Z,68.40
2018-09-14T15:07:10.845Z,68.90
2018-09-14T15:09:39.474Z,68.70
2018-09-14T15:12:07.564Z,68.40
2018-09-14T15:14:35.709Z,68.10
2018-09-14T15:17:03.942Z,68.00
2018-09-14T15:19:32.094Z,67.80
2018-09-14T15:22:00.200Z,67.60
2018-09-14T15:24:28.273Z,67.80
2018-09-14T15:26:56.357Z,68.50
2018-09-14T15:29:24.408Z,68.80
2018-09-14T15:31:52.458Z,69.30
2018-09-14T15:34:20.637Z,70.90
2018-09-14T15:36:48.803Z,71.00
2018-09-14T15:39:16.902Z,72.20
2018-09-14T15:41:45.048Z,71.80
2018-09-14T15:44:14.028Z,72.80
2018-09-14T15:46:42.123Z,73.20
2018-09-14T15:49:10.299Z,73.80
2018-09-14T15:51:38.392Z,75.40
2018-09-14T15:54:06.861Z,76.90
2018-09-14T15:56:34.918Z,78.40
2018-09-14T15:59:03.015Z,77.50
2018-09-14T16:01:31.060Z,77.70
2018-09-14T16:03:59.159Z,78.50
2018-09-14T16:06:27.364Z,77.80
2018-09-14T16:08:56.373Z,77.20
2018-09-14T16:11:25.368Z,76.30
2018-09-14T16:13:54.468Z,75.80
2018-09-14T16:16:23.463Z,75.40
2018-09-14T16:18:52.442Z,76.20
2018-09-14T16:21:21.436Z,76.20
2018-09-14T16:23:50.629Z,77.00
2018-09-14T16:26:18.823Z,77.40
2018-09-14T16:28:46.930Z,78.00
2018-09-14T16:31:15.164Z,77.80
2018-09-14T16:33:43.356Z,78.20
2018-09-14T16:36:11.426Z,78.50
2018-09-14T16:38:39.667Z,78.30
2018-09-14T16:41:07.685Z,78.00
2018-09-14T16:43:35.843Z,78.20
2018-09-14T16:46:04.016Z,78.40
2018-09-14T16:48:32.110Z,78.90
2018-09-14T16:51:00.168Z,79.20
2018-09-14T16:53:28.223Z,79.30
2018-09-14T16:55:56.419Z,79.60
2018-09-14T16:58:24.499Z,80.10
2018-09-14T17:00:52.646Z,80.40
2018-09-14T17:03:20.723Z,80.50
2018-09-14T17:05:49.676Z,80.20
2018-09-14T17:08:18.820Z,80.10
2018-09-14T17:10:47.875Z,80.00
2018-09-14T17:13:16.939Z,79.80
2018-09-14T17:15:45.963Z,80.50
2018-09-14T17:18:15.047Z,80.70
2018-09-14T17:20:44.091Z,80.80
2018-09-14T17:23:13.159Z,81.50
2018-09-14T17:25:42.402Z,81.40
2018-09-14T17:28:11.544Z,82.00
2018-09-14T17:30:40.694Z,82.00
2018-09-14T17:33:10.060Z,82.90
2018-09-14T17:35:38.970Z,82.40
2018-09-14T17:38:08.035Z,82.90
2018-09-14T17:40:37.127Z,82.70
2018-09-14T17:43:07.471Z,83.30
2018-09-14T17:45:36.580Z,83.20
2018-09-14T17:48:05.783Z,83.00
2018-09-14T17:50:35.036Z,83.40
2018-09-14T17:53:04.242Z,84.10
2018-09-14T17:55:33.337Z,83.80
2018-09-14T17:58:02.413Z,84.20
2018-09-14T18:00:31.656Z,85.10
2018-09-14T18:03:00.730Z,85.20
2018-09-14T18:05:30.249Z,85.60
2018-09-14T18:07:59.354Z,86.10
2018-09-14T18:10:28.297Z,86.10
2018-09-14T18:12:57.396Z,86.10
2018-09-14T18:15:26.467Z,86.80
2018-09-14T18:17:55.487Z,86.00
2018-09-14T18:20:24.613Z,86.60
2018-09-14T18:22:53.666Z,87.30
2018-09-14T18:25:22.868Z,87.30
2018-09-14T18:27:52.136Z,87.10
2018-09-14T18:30:21.165Z,86.90
2018-09-14T18:33:26.341Z,87.70
2018-09-14T18:36:26.168Z,87.60
2018-09-14T18:38:55.458Z,87.60
2018-09-14T18:41:24.454Z,88.70
2018-09-14T18:43:53.629Z,88.50
2018-09-14T18:46:22.757Z,89.00
2018-09-14T18:48:51.912Z,89.20
2018-09-14T18:51:20.997Z,89.60
2018-09-14T18:53:50.085Z,89.30
2018-09-14T18:56:19.337Z,89.70
2018-09-14T18:58:48.648Z,89.60
2018-09-14T19:01:17.918Z,89.90
2018-09-14T19:03:47.194Z,90.20
2018-09-14T19:06:16.387Z,90.30
2018-09-14T19:08:45.599Z,90.50
2018-09-14T19:11:14.689Z,90.30
2018-09-14T19:13:43.777Z,90.20
2018-09-14T19:16:13.190Z,90.40
2018-09-14T19:18:42.395Z,90.50
2018-09-14T19:21:11.589Z,90.20
2018-09-14T19:23:40.796Z,90.40
2018-09-14T19:26:09.898Z,90.80
2018-09-14T19:28:39.071Z,90.80
2018-09-14T19:31:08.224Z,90.80
2018-09-14T19:33:37.560Z,90.90
2018-09-14T19:36:06.904Z,91.30
2018-09-14T19:38:36.161Z,91.70
2018-09-14T19:41:05.336Z,91.30
2018-09-14T19:43:34.525Z,91.60
2018-09-14T19:46:03.871Z,92.40
2018-09-14T19:48:32.956Z,93.00
2018-09-14T19:51:01.953Z,93.30
2018-09-14T19:53:30.956Z,92.80
2018-09-14T19:55:59.896Z,92.80
2018-09-14T19:58:28.972Z,93.20
2018-09-14T20:00:58.239Z,93.10
2018-09-14T20:03:27.308Z,93.00
2018-09-14T20:05:56.296Z,92.70
2018-09-14T20:08:25.130Z,92.50
2018-09-14T20:10:54.324Z,93.20
2018-09-14T20:13:23.492Z,93.40
2018-09-14T20:15:52.660Z,93.60
2018-09-14T20:18:21.807Z,93.80
2018-09-14T20:20:50.879Z,94.00
2018-09-14T20:23:20.196Z,94.20
2018-09-14T20:25:49.276Z,94.40
2018-09-14T20:28:18.466Z,94.50
2018-09-14T20:30:47.694Z,95.00
2018-09-14T20:33:16.970Z,94.90
2018-09-14T20:35:46.009Z,94.60
2018-09-14T20:38:15.149Z,94.50
2018-09-14T20:40:44.328Z,94.60
2018-09-14T20:43:13.545Z,94.70
2018-09-14T20:45:42.609Z,95.00
2018-09-14T20:48:11.761Z,95.50
2018-09-14T20:50:40.929Z,95.10
2018-09-14T20:53:10.131Z,95.50
2018-09-14T20:55:39.174Z,95.10
2018-09-14T20:58:08.459Z,94.80
2018-09-14T21:00:37.541Z,95.50
2018-09-14T21:03:06.822Z,95.90
2018-09-14T21:05:35.892Z,96.20
2018-09-14T21:08:05.100Z,95.80
2018-09-14T21:10:34.187Z,96.10
2018-09-14T21:13:03.258Z,96.20
2018-09-14T21:15:32.444Z,96.10
2018-09-14T21:18:01.520Z,96.00
2018-09-14T21:20:30.632Z,95.90
2018-09-14T21:22:59.680Z,96.40
2018-09-14T21:25:28.664Z,96.30
2018-09-14T21:27:57.666Z,96.30
2018-09-14T21:30:26.640Z,96.30
2018-09-14T21:32:55.745Z,95.90
2018-09-14T21:35:24.852Z,96.30
2018-09-14T21:37:53.940Z,96.00
2018-09-14T21:40:23.079Z,95.40
2018-09-14T21:42:52.028Z,95.50
2018-09-14T21:45:21.016Z,95.20
2018-09-14T21:47:50.101Z,95.90
2018-09-14T21:50:19.244Z,96.10
2018-09-14T21:52:48.296Z,96.20
2018-09-14T21:55:17.483Z,96.60
2018-09-14T21:57:46.497Z,96.40
2018-09-14T22:00:20.727Z,96.20
2018-09-14T22:02:49.730Z,96.30
2018-09-14T22:05:18.783Z,96.60
2018-09-14T22:07:47.873Z,96.40
2018-09-14T22:10:16.985Z,96.20
2018-09-14T22:12:45.973Z,96.30
2018-09-14T22:15:14.987Z,96.20
2018-09-14T22:17:43.956Z,96.50
2018-09-14T22:20:13.206Z,96.50
2018-09-14T22:22:42.267Z,96.80
2018-09-14T22:25:11.362Z,97.10
2018-09-14T22:27:40.608Z,97.50
2018-09-14T22:30:09.859Z,97.30
2018-09-14T22:32:38.825Z,97.30
2018-09-14T22:35:08.076Z,97.60
2018-09-14T22:37:37.122Z,97.60
2018-09-14T22:40:06.334Z,97.60
2018-09-14T22:42:35.312Z,97.90
2018-09-14T22:45:04.408Z,97.20
2018-09-14T22:47:33.368Z,98.00
2018-09-14T22:50:02.354Z,98.60
2018-09-14T22:52:31.504Z,98.90
2018-09-14T22:55:00.477Z,98.40
2018-09-14T22:57:29.556Z,98.30
2018-09-14T22:59:58.556Z,98.00
2018-09-14T23:02:27.667Z,98.00
2018-09-14T23:04:56.742Z,97.80
2018-09-14T23:07:25.850Z,98.10
2018-09-14T23:09:55.056Z,97.80
2018-09-14T23:12:24.118Z,98.10
2018-09-14T23:14:53.211Z,96.90
2018-09-14T23:17:22.100Z,97.60
2018-09-14T23:19:51.223Z,97.90
2018-09-14T23:22:20.387Z,97.00
2018-09-14T23:24:49.528Z,97.10
2018-09-14T23:27:18.600Z,98.40
2018-09-14T23:29:47.700Z,98.70
2018-09-14T23:32:16.835Z,98.00
2018-09-14T23:34:46.013Z,98.50
2018-09-14T23:37:15.092Z,98.60
2018-09-14T23:39:44.280Z,98.60
2018-09-14T23:42:13.260Z,98.10
2018-09-14T23:44:42.611Z,98.10
2018-09-14T23:47:11.795Z,97.90
2018-09-14T23:49:40.741Z,98.60
2018-09-14T23:52:09.724Z,98.40
2018-09-14T23:54:38.848Z,98.50
2018-09-14T23:57:07.920Z,98.60
2018-09-14T23:59:37.162Z,99.30
